sensor_id;sensor_type;location;lat;lon;timestamp;noise_LAeq;noise_LA_min;noise_LA_max;noise_LA01;noise_LA95
43787;Laerm;29409;49.306;8.500;2023-01-28T00:01:25;40.03;36.45;43.68;;
43787;Laerm;29409;49.306;8.500;2023-01-28T00:03:03;41.03;37.70;43.63;;
43787;Laerm;29409;49.306;8.500;2023-01-28T00:04:41;41.86;38.52;45.83;;
43787;Laerm;29409;49.306;8.500;2023-01-28T00:06:19;40.84;37.32;46.15;;
43787;Laerm;29409;49.306;8.500;2023-01-28T00:07:56;40.29;37.32;43.14;;
43787;Laerm;29409;49.306;8.500;2023-01-28T00:09:36;40.26;36.20;42.65;;
43787;Laerm;29409;49.306;8.500;2023-01-28T00:11:15;40.62;37.12;45.77;;
43787;Laerm;29409;49.306;8.500;2023-01-28T00:12:54;39.97;36.91;42.71;;
43787;Laerm;29409;49.306;8.500;2023-01-28T00:14:31;39.80;36.45;42.59;;
43787;Laerm;29409;49.306;8.500;2023-01-28T00:16:09;40.08;36.91;42.41;;
43787;Laerm;29409;49.306;8.500;2023-01-28T00:17:47;40.60;37.12;44.39;;
43787;Laerm;29409;49.306;8.500;2023-01-28T00:19:26;40.44;36.98;43.72;;
43787;Laerm;29409;49.306;8.500;2023-01-28T00:21:05;44.37;36.91;61.99;;
43787;Laerm;29409;49.306;8.500;2023-01-28T00:22:46;40.51;36.20;45.14;;
43787;Laerm;29409;49.306;8.500;2023-01-28T00:24:25;39.60;36.45;42.65;;
43787;Laerm;29409;49.306;8.500;2023-01-28T00:26:05;39.37;36.45;41.82;;
43787;Laerm;29409;49.306;8.500;2023-01-28T00:27:43;40.48;37.70;48.05;;
43787;Laerm;29409;49.306;8.500;2023-01-28T00:29:22;41.05;37.52;44.62;;
43787;Laerm;29409;49.306;8.500;2023-01-28T00:31:06;40.46;37.70;43.90;;
43787;Laerm;29409;49.306;8.500;2023-01-28T00:32:44;40.19;37.12;43.58;;
43787;Laerm;29409;49.306;8.500;2023-01-28T00:34:22;40.21;37.12;42.88;;
43787;Laerm;29409;49.306;8.500;2023-01-28T00:36:01;40.44;37.52;42.53;;
43787;Laerm;29409;49.306;8.500;2023-01-28T00:37:40;40.85;37.12;49.51;;
43787;Laerm;29409;49.306;8.500;2023-01-28T00:39:18;41.32;38.21;47.59;;
43787;Laerm;29409;49.306;8.500;2023-01-28T00:40:56;41.68;37.70;53.28;;
43787;Laerm;29409;49.306;8.500;2023-01-28T00:42:43;40.78;37.53;43.77;;
43787;Laerm;29409;49.306;8.500;2023-01-28T00:44:20;40.47;37.52;43.39;;
43787;Laerm;29409;49.306;8.500;2023-01-28T00:45:59;40.84;37.70;44.69;;
43787;Laerm;29409;49.306;8.500;2023-01-28T00:47:37;40.26;37.32;42.76;;
43787;Laerm;29409;49.306;8.500;2023-01-28T00:49:15;40.97;37.12;44.62;;
43787;Laerm;29409;49.306;8.500;2023-01-28T00:50:53;40.46;37.12;48.15;;
43787;Laerm;29409;49.306;8.500;2023-01-28T00:52:31;39.94;36.20;44.76;;
43787;Laerm;29409;49.306;8.500;2023-01-28T00:54:10;40.57;36.91;45.01;;
43787;Laerm;29409;49.306;8.500;2023-01-28T00:55:48;40.31;36.91;42.76;;
43787;Laerm;29409;49.306;8.500;2023-01-28T00:57:26;40.67;37.52;44.03;;
43787;Laerm;29409;49.306;8.500;2023-01-28T00:59:05;40.37;37.52;42.71;;
43787;Laerm;29409;49.306;8.500;2023-01-28T01:00:43;40.18;36.91;43.99;;
43787;Laerm;29409;49.306;8.500;2023-01-28T01:02:21;40.78;37.12;45.83;;
43787;Laerm;29409;49.306;8.500;2023-01-28T01:03:59;39.82;36.69;42.53;;
43787;Laerm;29409;49.306;8.500;2023-01-28T01:05:40;40.37;37.70;43.24;;
43787;Laerm;29409;49.306;8.500;2023-01-28T01:07:17;40.68;37.52;44.15;;
43787;Laerm;29409;49.306;8.500;2023-01-28T01:08:55;40.78;37.52;46.13;;
43787;Laerm;29409;49.306;8.500;2023-01-28T01:10:33;40.74;37.88;43.49;;
43787;Laerm;29409;49.306;8.500;2023-01-28T01:12:11;40.95;37.70;45.75;;
43787;Laerm;29409;49.306;8.500;2023-01-28T01:13:50;40.77;37.88;43.63;;
43787;Laerm;29409;49.306;8.500;2023-01-28T01:15:28;40.71;37.32;44.51;;
43787;Laerm;29409;49.306;8.500;2023-01-28T01:17:05;40.03;36.69;42.41;;
43787;Laerm;29409;49.306;8.500;2023-01-28T01:18:43;39.35;35.94;42.03;;
43787;Laerm;29409;49.306;8.500;2023-01-28T01:20:23;40.31;37.12;44.27;;
43787;Laerm;29409;49.306;8.500;2023-01-28T01:22:01;40.14;37.52;42.35;;
43787;Laerm;29409;49.306;8.500;2023-01-28T01:23:39;40.35;36.91;43.77;;
43787;Laerm;29409;49.306;8.500;2023-01-28T01:25:17;40.22;36.10;42.82;;
43787;Laerm;29409;49.306;8.500;2023-01-28T01:26:55;39.85;36.91;42.03;;
43787;Laerm;29409;49.306;8.500;2023-01-28T01:28:33;40.36;37.12;46.48;;
43787;Laerm;29409;49.306;8.500;2023-01-28T01:30:11;40.18;36.91;42.71;;
43787;Laerm;29409;49.306;8.500;2023-01-28T01:31:49;40.30;37.12;43.99;;
43787;Laerm;29409;49.306;8.500;2023-01-28T01:33:28;40.57;35.94;44.65;;
43787;Laerm;29409;49.306;8.500;2023-01-28T01:35:08;39.88;36.69;42.16;;
43787;Laerm;29409;49.306;8.500;2023-01-28T01:36:46;40.38;37.12;42.93;;
43787;Laerm;29409;49.306;8.500;2023-01-28T01:38:25;39.75;36.45;42.03;;
43787;Laerm;29409;49.306;8.500;2023-01-28T01:40:03;41.71;36.91;50.80;;
43787;Laerm;29409;49.306;8.500;2023-01-28T01:41:42;40.90;38.05;43.49;;
43787;Laerm;29409;49.306;8.500;2023-01-28T01:43:20;40.91;37.52;43.58;;
43787;Laerm;29409;49.306;8.500;2023-01-28T01:45:04;40.24;37.32;43.86;;
43787;Laerm;29409;49.306;8.500;2023-01-28T01:46:44;40.89;37.52;46.41;;
43787;Laerm;29409;49.306;8.500;2023-01-28T01:48:29;41.49;37.88;49.89;;
43787;Laerm;29409;49.306;8.500;2023-01-28T01:50:45;40.49;37.70;47.26;;
43787;Laerm;29409;49.306;8.500;2023-01-28T01:52:14;40.60;36.91;43.04;;
43787;Laerm;29409;49.306;8.500;2023-01-28T01:53:53;40.12;36.91;44.97;;
43787;Laerm;29409;49.306;8.500;2023-01-28T01:55:34;39.84;35.66;42.59;;
43787;Laerm;29409;49.306;8.500;2023-01-28T01:57:15;40.26;36.20;43.60;;
43787;Laerm;29409;49.306;8.500;2023-01-28T01:58:53;40.49;37.32;46.59;;
43787;Laerm;29409;49.306;8.500;2023-01-28T02:00:32;41.09;37.32;45.20;;
43787;Laerm;29409;49.306;8.500;2023-01-28T02:02:10;40.92;37.32;46.95;;
43787;Laerm;29409;49.306;8.500;2023-01-28T02:05:26;40.23;36.69;43.14;;
43787;Laerm;29409;49.306;8.500;2023-01-28T02:07:04;39.99;36.91;42.82;;
43787;Laerm;29409;49.306;8.500;2023-01-28T02:08:43;40.49;36.91;46.79;;
43787;Laerm;29409;49.306;8.500;2023-01-28T02:10:22;40.75;37.52;45.83;;
43787;Laerm;29409;49.306;8.500;2023-01-28T02:12:08;39.83;36.77;42.09;;
43787;Laerm;29409;49.306;8.500;2023-01-28T02:13:48;39.85;36.69;42.53;;
43787;Laerm;29409;49.306;8.500;2023-01-28T02:15:28;40.51;37.52;45.27;;
43787;Laerm;29409;49.306;8.500;2023-01-28T02:17:06;40.82;36.69;44.39;;
43787;Laerm;29409;49.306;8.500;2023-01-28T02:18:44;40.65;38.05;44.31;;
43787;Laerm;29409;49.306;8.500;2023-01-28T02:20:28;39.97;36.69;42.03;;
43787;Laerm;29409;49.306;8.500;2023-01-28T02:22:18;40.42;36.91;45.91;;
43787;Laerm;29409;49.306;8.500;2023-01-28T02:30:57;40.46;37.52;51.77;;
43787;Laerm;29409;49.306;8.500;2023-01-28T02:32:56;40.70;36.91;48.31;;
43787;Laerm;29409;49.306;8.500;2023-01-28T02:38:25;40.80;38.02;43.49;;
43787;Laerm;29409;49.306;8.500;2023-01-28T02:40:10;40.59;37.32;43.34;;
43787;Laerm;29409;49.306;8.500;2023-01-28T02:41:52;41.76;38.67;47.77;;
43787;Laerm;29409;49.306;8.500;2023-01-28T02:43:39;40.65;36.91;43.04;;
43787;Laerm;29409;49.306;8.500;2023-01-28T02:45:22;40.95;37.88;46.40;;
43787;Laerm;29409;49.306;8.500;2023-01-28T02:47:00;40.88;37.88;44.07;;
43787;Laerm;29409;49.306;8.500;2023-01-28T02:48:57;40.96;38.05;47.91;;
43787;Laerm;29409;49.306;8.500;2023-01-28T02:50:38;41.53;37.32;49.93;;
43787;Laerm;29409;49.306;8.500;2023-01-28T02:52:24;40.48;37.32;45.23;;
43787;Laerm;29409;49.306;8.500;2023-01-28T02:56:24;40.52;37.32;43.81;;
43787;Laerm;29409;49.306;8.500;2023-01-28T03:01:32;41.73;38.05;47.08;;
43787;Laerm;29409;49.306;8.500;2023-01-28T03:03:25;41.09;38.21;47.98;;
43787;Laerm;29409;49.306;8.500;2023-01-28T03:05:06;40.92;38.21;42.90;;
43787;Laerm;29409;49.306;8.500;2023-01-28T03:06:48;41.88;38.05;48.64;;
43787;Laerm;29409;49.306;8.500;2023-01-28T03:08:32;40.82;37.52;42.93;;
43787;Laerm;29409;49.306;8.500;2023-01-28T03:10:30;41.05;37.88;49.02;;
43787;Laerm;29409;49.306;8.500;2023-01-28T03:12:15;41.05;38.05;43.86;;
43787;Laerm;29409;49.306;8.500;2023-01-28T03:14:15;41.66;38.37;46.97;;
43787;Laerm;29409;49.306;8.500;2023-01-28T03:16:12;40.94;37.32;48.18;;
43787;Laerm;29409;49.306;8.500;2023-01-28T03:18:10;40.66;37.88;43.39;;
43787;Laerm;29409;49.306;8.500;2023-01-28T03:20:08;40.36;36.91;43.14;;
43787;Laerm;29409;49.306;8.500;2023-01-28T03:22:05;40.79;37.52;45.43;;
43787;Laerm;29409;49.306;8.500;2023-01-28T03:24:07;41.32;37.70;46.03;;
43787;Laerm;29409;49.306;8.500;2023-01-28T03:26:06;41.08;37.88;43.86;;
43787;Laerm;29409;49.306;8.500;2023-01-28T03:28:04;41.19;37.88;44.69;;
43787;Laerm;29409;49.306;8.500;2023-01-28T03:30:11;42.02;38.67;49.94;;
43787;Laerm;29409;49.306;8.500;2023-01-28T03:32:09;41.31;38.21;43.86;;
43787;Laerm;29409;49.306;8.500;2023-01-28T03:34:06;41.72;38.37;44.73;;
43787;Laerm;29409;49.306;8.500;2023-01-28T03:36:05;42.62;38.81;55.29;;
43787;Laerm;29409;49.306;8.500;2023-01-28T03:38:02;41.59;38.67;44.73;;
43787;Laerm;29409;49.306;8.500;2023-01-28T03:39:55;41.76;39.08;44.15;;
43787;Laerm;29409;49.306;8.500;2023-01-28T03:41:34;42.10;39.34;44.62;;
43787;Laerm;29409;49.306;8.500;2023-01-28T03:43:12;42.40;39.70;48.40;;
43787;Laerm;29409;49.306;8.500;2023-01-28T03:44:50;41.47;38.21;46.93;;
43787;Laerm;29409;49.306;8.500;2023-01-28T03:46:31;40.94;36.69;48.45;;
43787;Laerm;29409;49.306;8.500;2023-01-28T03:48:09;40.83;37.52;49.03;;
43787;Laerm;29409;49.306;8.500;2023-01-28T03:49:48;41.75;37.52;48.70;;
43787;Laerm;29409;49.306;8.500;2023-01-28T03:51:26;42.41;39.08;49.00;;
43787;Laerm;29409;49.306;8.500;2023-01-28T03:53:03;41.03;37.88;46.23;;
43787;Laerm;29409;49.306;8.500;2023-01-28T03:54:51;41.33;37.52;45.77;;
43787;Laerm;29409;49.306;8.500;2023-01-28T03:56:31;41.25;38.37;46.28;;
43787;Laerm;29409;49.306;8.500;2023-01-28T03:58:17;40.77;37.52;48.67;;
43787;Laerm;29409;49.306;8.500;2023-01-28T03:59:55;41.48;37.32;49.28;;
43787;Laerm;29409;49.306;8.500;2023-01-28T04:01:33;41.60;37.12;50.74;;
43787;Laerm;29409;49.306;8.500;2023-01-28T04:03:11;41.22;36.91;46.30;;
43787;Laerm;29409;49.306;8.500;2023-01-28T04:04:53;40.58;37.52;43.04;;
43787;Laerm;29409;49.306;8.500;2023-01-28T04:06:32;41.39;38.05;48.64;;
43787;Laerm;29409;49.306;8.500;2023-01-28T04:08:10;40.80;37.52;44.15;;
43787;Laerm;29409;49.306;8.500;2023-01-28T04:09:49;40.88;37.32;51.84;;
43787;Laerm;29409;49.306;8.500;2023-01-28T04:11:27;40.45;37.32;43.44;;
43787;Laerm;29409;49.306;8.500;2023-01-28T04:13:05;42.04;37.70;51.84;;
43787;Laerm;29409;49.306;8.500;2023-01-28T04:14:43;41.99;38.52;49.28;;
43787;Laerm;29409;49.306;8.500;2023-01-28T04:16:21;41.67;38.05;55.65;;
43787;Laerm;29409;49.306;8.500;2023-01-28T04:17:59;41.38;37.52;50.01;;
43787;Laerm;29409;49.306;8.500;2023-01-28T04:19:37;40.57;37.32;43.94;;
43787;Laerm;29409;49.306;8.500;2023-01-28T04:21:17;41.36;37.52;48.95;;
43787;Laerm;29409;49.306;8.500;2023-01-28T04:22:55;40.96;36.69;45.04;;
43787;Laerm;29409;49.306;8.500;2023-01-28T04:24:33;40.51;37.52;44.35;;
43787;Laerm;29409;49.306;8.500;2023-01-28T04:26:10;41.38;37.70;47.14;;
43787;Laerm;29409;49.306;8.500;2023-01-28T04:27:48;40.80;37.32;46.38;;
43787;Laerm;29409;49.306;8.500;2023-01-28T04:29:27;41.65;37.52;47.57;;
43787;Laerm;29409;49.306;8.500;2023-01-28T04:31:04;42.89;38.21;51.64;;
43787;Laerm;29409;49.306;8.500;2023-01-28T04:32:43;42.18;38.52;51.52;;
43787;Laerm;29409;49.306;8.500;2023-01-28T04:34:22;42.82;38.37;49.07;;
43787;Laerm;29409;49.306;8.500;2023-01-28T04:36:00;44.19;39.46;52.04;;
43787;Laerm;29409;49.306;8.500;2023-01-28T04:37:41;41.48;38.67;46.28;;
43787;Laerm;29409;49.306;8.500;2023-01-28T04:39:19;41.83;37.52;48.42;;
43787;Laerm;29409;49.306;8.500;2023-01-28T04:40:57;41.73;37.88;46.64;;
43787;Laerm;29409;49.306;8.500;2023-01-28T04:42:35;42.73;37.70;50.40;;
43787;Laerm;29409;49.306;8.500;2023-01-28T04:44:13;41.51;38.21;53.23;;
43787;Laerm;29409;49.306;8.500;2023-01-28T04:45:53;41.03;37.52;43.77;;
43787;Laerm;29409;49.306;8.500;2023-01-28T04:47:31;41.87;38.37;49.60;;
43787;Laerm;29409;49.306;8.500;2023-01-28T04:49:09;41.83;38.52;47.74;;
43787;Laerm;29409;49.306;8.500;2023-01-28T04:50:48;42.48;38.21;48.81;;
43787;Laerm;29409;49.306;8.500;2023-01-28T04:52:25;41.68;38.95;45.94;;
43787;Laerm;29409;49.306;8.500;2023-01-28T04:54:03;43.18;39.70;54.85;;
43787;Laerm;29409;49.306;8.500;2023-01-28T04:55:41;41.78;38.67;45.89;;
43787;Laerm;29409;49.306;8.500;2023-01-28T04:57:20;42.14;38.52;47.44;;
43787;Laerm;29409;49.306;8.500;2023-01-28T04:58:58;41.54;36.20;45.75;;
43787;Laerm;29409;49.306;8.500;2023-01-28T05:00:36;42.49;38.21;48.36;;
43787;Laerm;29409;49.306;8.500;2023-01-28T05:02:14;41.67;38.67;51.70;;
43787;Laerm;29409;49.306;8.500;2023-01-28T05:03:52;43.72;38.21;59.21;;
43787;Laerm;29409;49.306;8.500;2023-01-28T05:05:30;43.45;39.08;57.99;;
43787;Laerm;29409;49.306;8.500;2023-01-28T05:07:09;41.26;37.70;49.39;;
43787;Laerm;29409;49.306;8.500;2023-01-28T05:08:47;41.33;38.67;43.77;;
43787;Laerm;29409;49.306;8.500;2023-01-28T05:10:26;42.06;38.52;49.40;;
43787;Laerm;29409;49.306;8.500;2023-01-28T05:12:04;42.15;38.52;46.82;;
43787;Laerm;29409;49.306;8.500;2023-01-28T05:13:42;44.60;39.46;57.15;;
43787;Laerm;29409;49.306;8.500;2023-01-28T05:15:20;42.40;39.08;45.48;;
43787;Laerm;29409;49.306;8.500;2023-01-28T05:16:58;41.55;38.05;48.70;;
43787;Laerm;29409;49.306;8.500;2023-01-28T05:18:36;41.25;38.21;43.86;;
43787;Laerm;29409;49.306;8.500;2023-01-28T05:20:13;42.19;39.21;50.44;;
43787;Laerm;29409;49.306;8.500;2023-01-28T05:21:52;42.06;39.34;48.61;;
43787;Laerm;29409;49.306;8.500;2023-01-28T05:23:29;43.13;39.81;52.26;;
43787;Laerm;29409;49.306;8.500;2023-01-28T05:25:07;42.14;38.67;48.64;;
43787;Laerm;29409;49.306;8.500;2023-01-28T05:26:46;42.88;39.21;56.76;;
43787;Laerm;29409;49.306;8.500;2023-01-28T05:28:24;42.73;38.67;50.70;;
43787;Laerm;29409;49.306;8.500;2023-01-28T05:30:01;41.25;35.36;50.21;;
43787;Laerm;29409;49.306;8.500;2023-01-28T05:31:40;41.74;38.81;49.79;;
43787;Laerm;29409;49.306;8.500;2023-01-28T05:33:17;40.99;38.81;45.77;;
43787;Laerm;29409;49.306;8.500;2023-01-28T05:34:55;41.52;38.05;45.07;;
43787;Laerm;29409;49.306;8.500;2023-01-28T05:36:33;43.01;37.88;51.70;;
43787;Laerm;29409;49.306;8.500;2023-01-28T05:38:12;43.33;39.81;51.15;;
43787;Laerm;29409;49.306;8.500;2023-01-28T05:39:49;43.63;39.08;56.59;;
43787;Laerm;29409;49.306;8.500;2023-01-28T05:41:27;42.39;38.05;49.59;;
43787;Laerm;29409;49.306;8.500;2023-01-28T05:43:05;42.35;38.81;53.03;;
43787;Laerm;29409;49.306;8.500;2023-01-28T05:44:43;43.14;39.58;48.90;;
43787;Laerm;29409;49.306;8.500;2023-01-28T05:46:21;42.50;39.46;49.04;;
43787;Laerm;29409;49.306;8.500;2023-01-28T05:47:59;42.56;39.21;48.48;;
43787;Laerm;29409;49.306;8.500;2023-01-28T05:49:37;41.92;39.21;45.11;;
43787;Laerm;29409;49.306;8.500;2023-01-28T05:51:14;41.99;38.99;48.32;;
43787;Laerm;29409;49.306;8.500;2023-01-28T05:52:52;43.02;39.34;53.34;;
43787;Laerm;29409;49.306;8.500;2023-01-28T05:54:30;41.61;38.67;47.10;;
43787;Laerm;29409;49.306;8.500;2023-01-28T05:56:08;41.62;38.05;47.54;;
43787;Laerm;29409;49.306;8.500;2023-01-28T05:57:46;42.44;39.21;46.48;;
43787;Laerm;29409;49.306;8.500;2023-01-28T05:59:24;42.44;39.58;48.67;;
43787;Laerm;29409;49.306;8.500;2023-01-28T06:01:02;43.05;39.58;49.16;;
43787;Laerm;29409;49.306;8.500;2023-01-28T06:02:41;43.39;39.34;53.81;;
43787;Laerm;29409;49.306;8.500;2023-01-28T06:04:19;42.40;39.58;47.76;;
43787;Laerm;29409;49.306;8.500;2023-01-28T06:05:56;42.18;39.58;44.73;;
43787;Laerm;29409;49.306;8.500;2023-01-28T06:07:34;42.78;39.81;46.25;;
43787;Laerm;29409;49.306;8.500;2023-01-28T06:09:13;42.04;39.58;46.28;;
43787;Laerm;29409;49.306;8.500;2023-01-28T06:10:51;41.69;38.21;43.90;;
43787;Laerm;29409;49.306;8.500;2023-01-28T06:12:28;42.44;39.70;47.00;;
43787;Laerm;29409;49.306;8.500;2023-01-28T06:14:07;43.13;39.08;52.86;;
43787;Laerm;29409;49.306;8.500;2023-01-28T06:15:47;41.65;39.08;43.90;;
43787;Laerm;29409;49.306;8.500;2023-01-28T06:17:25;41.68;39.34;43.72;;
43787;Laerm;29409;49.306;8.500;2023-01-28T06:19:03;42.41;38.95;49.80;;
43787;Laerm;29409;49.306;8.500;2023-01-28T06:20:41;41.99;38.81;49.02;;
43787;Laerm;29409;49.306;8.500;2023-01-28T06:22:20;42.80;39.08;55.03;;
43787;Laerm;29409;49.306;8.500;2023-01-28T06:23:58;41.62;38.37;44.39;;
43787;Laerm;29409;49.306;8.500;2023-01-28T06:25:36;42.35;38.95;52.02;;
43787;Laerm;29409;49.306;8.500;2023-01-28T06:27:13;43.42;39.58;52.85;;
43787;Laerm;29409;49.306;8.500;2023-01-28T06:28:51;43.76;40.33;52.68;;
43787;Laerm;29409;49.306;8.500;2023-01-28T06:30:29;42.74;39.11;49.36;;
43787;Laerm;29409;49.306;8.500;2023-01-28T06:32:07;42.59;39.34;47.32;;
43787;Laerm;29409;49.306;8.500;2023-01-28T06:33:44;42.86;39.81;46.28;;
43787;Laerm;29409;49.306;8.500;2023-01-28T06:35:22;43.76;40.80;50.00;;
43787;Laerm;29409;49.306;8.500;2023-01-28T06:37:00;43.24;39.81;49.55;;
43787;Laerm;29409;49.306;8.500;2023-01-28T06:38:40;44.25;39.46;59.04;;
43787;Laerm;29409;49.306;8.500;2023-01-28T06:40:18;42.69;39.92;46.93;;
43787;Laerm;29409;49.306;8.500;2023-01-28T06:41:56;41.84;38.99;46.15;;
43787;Laerm;29409;49.306;8.500;2023-01-28T06:43:34;46.77;39.81;64.08;;
43787;Laerm;29409;49.306;8.500;2023-01-28T06:45:12;43.33;40.33;50.68;;
43787;Laerm;29409;49.306;8.500;2023-01-28T06:46:50;43.64;39.34;57.07;;
43787;Laerm;29409;49.306;8.500;2023-01-28T06:48:28;45.13;40.43;58.03;;
43787;Laerm;29409;49.306;8.500;2023-01-28T06:50:07;44.64;40.23;55.18;;
43787;Laerm;29409;49.306;8.500;2023-01-28T06:51:45;43.11;39.46;49.27;;
43787;Laerm;29409;49.306;8.500;2023-01-28T06:53:22;45.57;41.41;56.30;;
43787;Laerm;29409;49.306;8.500;2023-01-28T06:55:00;44.23;40.71;56.47;;
43787;Laerm;29409;49.306;8.500;2023-01-28T06:56:39;42.74;39.70;48.96;;
43787;Laerm;29409;49.306;8.500;2023-01-28T06:58:16;44.23;39.46;55.87;;
43787;Laerm;29409;49.306;8.500;2023-01-28T06:59:54;43.54;39.81;50.72;;
43787;Laerm;29409;49.306;8.500;2023-01-28T07:01:32;43.11;38.81;54.70;;
43787;Laerm;29409;49.306;8.500;2023-01-28T07:03:10;50.03;39.46;67.73;;
43787;Laerm;29409;49.306;8.500;2023-01-28T07:04:48;44.07;39.92;52.19;;
43787;Laerm;29409;49.306;8.500;2023-01-28T07:06:26;43.02;39.21;51.69;;
43787;Laerm;29409;49.306;8.500;2023-01-28T07:08:04;42.49;39.08;46.80;;
43787;Laerm;29409;49.306;8.500;2023-01-28T07:09:42;43.01;39.70;53.44;;
43787;Laerm;29409;49.306;8.500;2023-01-28T07:11:20;44.19;40.53;56.69;;
43787;Laerm;29409;49.306;8.500;2023-01-28T07:12:58;43.19;39.23;50.36;;
43787;Laerm;29409;49.306;8.500;2023-01-28T07:14:36;43.09;39.46;51.82;;
43787;Laerm;29409;49.306;8.500;2023-01-28T07:16:13;42.28;39.34;51.75;;
43787;Laerm;29409;49.306;8.500;2023-01-28T07:17:51;42.23;39.34;46.22;;
43787;Laerm;29409;49.306;8.500;2023-01-28T07:19:29;45.30;40.33;56.99;;
43787;Laerm;29409;49.306;8.500;2023-01-28T07:21:07;42.90;39.34;54.32;;
43787;Laerm;29409;49.306;8.500;2023-01-28T07:22:44;44.03;39.58;51.49;;
43787;Laerm;29409;49.306;8.500;2023-01-28T07:24:23;43.93;40.03;54.86;;
43787;Laerm;29409;49.306;8.500;2023-01-28T07:26:01;43.76;40.08;52.88;;
43787;Laerm;29409;49.306;8.500;2023-01-28T07:27:44;43.61;40.71;50.05;;
43787;Laerm;29409;49.306;8.500;2023-01-28T07:29:23;43.52;39.92;52.32;;
43787;Laerm;29409;49.306;8.500;2023-01-28T07:31:01;43.02;40.53;48.80;;
43787;Laerm;29409;49.306;8.500;2023-01-28T07:32:39;44.91;40.53;57.84;;
43787;Laerm;29409;49.306;8.500;2023-01-28T07:34:17;43.80;40.53;52.92;;
43787;Laerm;29409;49.306;8.500;2023-01-28T07:35:55;49.58;40.03;71.65;;
43787;Laerm;29409;49.306;8.500;2023-01-28T07:37:33;42.31;39.34;48.48;;
43787;Laerm;29409;49.306;8.500;2023-01-28T07:39:10;43.51;38.67;51.57;;
43787;Laerm;29409;49.306;8.500;2023-01-28T07:40:48;43.90;40.03;59.26;;
43787;Laerm;29409;49.306;8.500;2023-01-28T07:42:26;45.34;39.21;64.31;;
43787;Laerm;29409;49.306;8.500;2023-01-28T07:44:04;45.95;40.13;57.73;;
43787;Laerm;29409;49.306;8.500;2023-01-28T07:45:42;44.64;40.23;67.07;;
43787;Laerm;29409;49.306;8.500;2023-01-28T07:47:20;50.26;40.23;71.76;;
43787;Laerm;29409;49.306;8.500;2023-01-28T07:48:58;45.07;40.03;60.51;;
43787;Laerm;29409;49.306;8.500;2023-01-28T07:50:35;43.32;39.46;53.61;;
43787;Laerm;29409;49.306;8.500;2023-01-28T07:52:13;44.91;40.62;56.04;;
43787;Laerm;29409;49.306;8.500;2023-01-28T07:53:51;43.71;40.33;52.72;;
43787;Laerm;29409;49.306;8.500;2023-01-28T07:55:29;45.15;40.43;55.61;;
43787;Laerm;29409;49.306;8.500;2023-01-28T07:57:07;43.62;39.58;52.77;;
43787;Laerm;29409;49.306;8.500;2023-01-28T07:58:49;44.13;39.70;50.99;;
43787;Laerm;29409;49.306;8.500;2023-01-28T08:00:28;43.13;39.21;50.59;;
43787;Laerm;29409;49.306;8.500;2023-01-28T08:02:08;43.71;40.89;52.25;;
43787;Laerm;29409;49.306;8.500;2023-01-28T08:03:47;42.68;40.03;52.82;;
43787;Laerm;29409;49.306;8.500;2023-01-28T08:05:25;43.22;39.58;62.06;;
43787;Laerm;29409;49.306;8.500;2023-01-28T08:07:04;43.78;39.78;61.28;;
43787;Laerm;29409;49.306;8.500;2023-01-28T08:08:42;43.35;40.23;53.40;;
43787;Laerm;29409;49.306;8.500;2023-01-28T08:10:19;44.58;40.33;55.54;;
43787;Laerm;29409;49.306;8.500;2023-01-28T08:11:57;44.72;41.06;62.63;;
43787;Laerm;29409;49.306;8.500;2023-01-28T08:13:35;44.50;40.08;53.46;;
43787;Laerm;29409;49.306;8.500;2023-01-28T08:15:13;44.66;39.92;54.81;;
43787;Laerm;29409;49.306;8.500;2023-01-28T08:16:51;43.90;40.53;50.83;;
43787;Laerm;29409;49.306;8.500;2023-01-28T08:18:29;43.52;40.13;54.85;;
43787;Laerm;29409;49.306;8.500;2023-01-28T08:20:07;43.52;40.13;48.28;;
43787;Laerm;29409;49.306;8.500;2023-01-28T08:21:46;43.53;39.81;50.10;;
43787;Laerm;29409;49.306;8.500;2023-01-28T08:23:25;44.52;39.81;53.37;;
43787;Laerm;29409;49.306;8.500;2023-01-28T08:25:03;44.20;40.33;51.98;;
43787;Laerm;29409;49.306;8.500;2023-01-28T08:26:41;43.68;39.70;51.84;;
43787;Laerm;29409;49.306;8.500;2023-01-28T08:28:20;44.63;40.23;54.11;;
43787;Laerm;29409;49.306;8.500;2023-01-28T08:29:58;43.16;40.43;48.60;;
43787;Laerm;29409;49.306;8.500;2023-01-28T08:31:36;43.61;39.58;50.67;;
43787;Laerm;29409;49.306;8.500;2023-01-28T08:33:14;44.27;39.70;52.47;;
43787;Laerm;29409;49.306;8.500;2023-01-28T08:34:52;44.82;40.03;58.27;;
43787;Laerm;29409;49.306;8.500;2023-01-28T08:36:30;43.94;41.06;50.15;;
43787;Laerm;29409;49.306;8.500;2023-01-28T08:38:08;47.21;40.43;63.61;;
43787;Laerm;29409;49.306;8.500;2023-01-28T08:39:47;44.04;41.38;52.88;;
43787;Laerm;29409;49.306;8.500;2023-01-28T08:41:24;45.07;39.92;59.45;;
43787;Laerm;29409;49.306;8.500;2023-01-28T08:43:02;45.10;40.53;57.45;;
43787;Laerm;29409;49.306;8.500;2023-01-28T08:44:41;44.37;40.43;53.68;;
43787;Laerm;29409;49.306;8.500;2023-01-28T08:46:18;44.37;40.71;54.15;;
43787;Laerm;29409;49.306;8.500;2023-01-28T08:47:57;43.88;40.53;62.16;;
43787;Laerm;29409;49.306;8.500;2023-01-28T08:49:36;45.31;41.61;52.12;;
43787;Laerm;29409;49.306;8.500;2023-01-28T08:51:14;46.13;41.46;53.43;;
43787;Laerm;29409;49.306;8.500;2023-01-28T08:52:55;44.56;41.22;53.63;;
43787;Laerm;29409;49.306;8.500;2023-01-28T08:54:33;43.78;40.23;53.83;;
43787;Laerm;29409;49.306;8.500;2023-01-28T08:56:13;47.00;40.23;59.73;;
43787;Laerm;29409;49.306;8.500;2023-01-28T08:57:51;44.99;41.30;51.95;;
43787;Laerm;29409;49.306;8.500;2023-01-28T08:59:29;45.38;40.13;54.63;;
43787;Laerm;29409;49.306;8.500;2023-01-28T09:01:07;43.76;40.03;57.14;;
43787;Laerm;29409;49.306;8.500;2023-01-28T09:02:45;44.75;40.80;58.24;;
43787;Laerm;29409;49.306;8.500;2023-01-28T09:04:23;44.03;40.23;49.80;;
43787;Laerm;29409;49.306;8.500;2023-01-28T09:06:01;45.07;41.14;52.06;;
43787;Laerm;29409;49.306;8.500;2023-01-28T09:07:39;44.20;41.06;52.10;;
43787;Laerm;29409;49.306;8.500;2023-01-28T09:09:17;44.97;39.34;58.56;;
43787;Laerm;29409;49.306;8.500;2023-01-28T09:10:55;43.59;40.23;50.37;;
43787;Laerm;29409;49.306;8.500;2023-01-28T09:12:33;44.07;40.23;51.66;;
43787;Laerm;29409;49.306;8.500;2023-01-28T09:14:12;45.04;40.89;55.55;;
43787;Laerm;29409;49.306;8.500;2023-01-28T09:15:50;43.95;40.53;49.71;;
43787;Laerm;29409;49.306;8.500;2023-01-28T09:17:28;47.95;40.98;61.81;;
43787;Laerm;29409;49.306;8.500;2023-01-28T09:19:06;49.49;42.09;60.88;;
43787;Laerm;29409;49.306;8.500;2023-01-28T09:20:44;43.60;39.34;51.93;;
43787;Laerm;29409;49.306;8.500;2023-01-28T09:22:22;48.11;41.38;64.74;;
43787;Laerm;29409;49.306;8.500;2023-01-28T09:24:00;46.31;40.23;66.00;;
43787;Laerm;29409;49.306;8.500;2023-01-28T09:25:38;43.61;40.03;57.57;;
43787;Laerm;29409;49.306;8.500;2023-01-28T09:27:16;48.86;40.89;70.21;;
43787;Laerm;29409;49.306;8.500;2023-01-28T09:28:54;47.25;40.03;63.18;;
43787;Laerm;29409;49.306;8.500;2023-01-28T09:30:32;44.77;40.03;55.98;;
43787;Laerm;29409;49.306;8.500;2023-01-28T09:32:11;43.31;39.92;51.26;;
43787;Laerm;29409;49.306;8.500;2023-01-28T09:33:49;43.11;40.33;49.15;;
43787;Laerm;29409;49.306;8.500;2023-01-28T09:35:33;45.43;40.03;60.69;;
43787;Laerm;29409;49.306;8.500;2023-01-28T09:37:11;43.85;40.71;54.04;;